createdAt,value
2019-02-17T00:01:06.878Z,11.50
2019-02-17T00:03:37.363Z,11.50
2019-02-17T00:06:07.780Z,11.50
2019-02-17T00:08:38.200Z,11.50
2019-02-17T00:11:08.655Z,11.50
2019-02-17T00:13:39.113Z,11.40
2019-02-17T00:16:09.541Z,11.40
2019-02-17T00:18:39.979Z,11.40
2019-02-17T00:21:10.405Z,11.40
2019-02-17T00:23:40.833Z,11.40
2019-02-17T00:26:11.247Z,11.40
2019-02-17T00:28:41.702Z,11.30
2019-02-17T00:31:12.137Z,11.30
2019-02-17T00:33:42.633Z,11.30
2019-02-17T00:36:13.030Z,11.30
2019-02-17T00:38:43.489Z,11.30
2019-02-17T00:41:13.915Z,11.20
2019-02-17T00:43:44.438Z,11.20
2019-02-17T00:46:14.837Z,11.20
2019-02-17T00:48:45.318Z,11.20
2019-02-17T00:51:15.777Z,11.20
2019-02-17T00:53:46.197Z,11.10
2019-02-17T00:56:16.617Z,11.00
2019-02-17T00:58:47.532Z,11.00
2019-02-17T01:01:17.957Z,11.00
2019-02-17T01:03:48.383Z,11.00
2019-02-17T01:06:18.862Z,11.00
2019-02-17T01:08:49.306Z,11.10
2019-02-17T01:11:19.773Z,11.10
2019-02-17T01:13:50.210Z,11.10
2019-02-17T01:16:20.845Z,11.10
2019-02-17T01:18:51.276Z,11.10
2019-02-17T01:21:21.683Z,11.10
2019-02-17T01:23:52.135Z,11.10
2019-02-17T01:26:22.640Z,11.10
2019-02-17T01:28:53.096Z,11.10
2019-02-17T01:31:23.515Z,11.10
2019-02-17T01:33:53.966Z,11.10
2019-02-17T01:36:24.374Z,11.10
2019-02-17T01:38:54.802Z,11.00
2019-02-17T01:41:25.216Z,11.10
2019-02-17T01:43:55.809Z,11.10
2019-02-17T01:46:26.210Z,11.00
2019-02-17T01:48:56.639Z,11.00
2019-02-17T01:51:27.051Z,11.00
2019-02-17T01:53:57.452Z,11.00
2019-02-17T01:56:27.853Z,11.00
2019-02-17T01:58:58.278Z,11.00
2019-02-17T02:01:28.797Z,11.00
2019-02-17T02:03:59.240Z,11.00
2019-02-17T02:06:29.752Z,11.00
2019-02-17T02:09:00.185Z,10.90
2019-02-17T02:11:30.606Z,10.90
2019-02-17T02:14:01.047Z,10.80
2019-02-17T02:16:31.450Z,10.80
2019-02-17T02:19:01.863Z,10.80
2019-02-17T02:21:32.294Z,10.70
2019-02-17T02:24:02.728Z,10.70
2019-02-17T02:26:33.166Z,10.70
2019-02-17T02:29:03.690Z,10.60
2019-02-17T02:31:34.135Z,10.60
2019-02-17T02:34:04.536Z,10.70
2019-02-17T02:36:34.969Z,10.70
2019-02-17T02:39:07.278Z,10.70
2019-02-17T02:41:37.787Z,10.70
2019-02-17T02:44:08.188Z,10.70
2019-02-17T02:46:38.620Z,10.70
2019-02-17T02:49:09.021Z,10.70
2019-02-17T02:51:39.461Z,10.70
2019-02-17T02:54:09.869Z,10.70
2019-02-17T02:56:40.383Z,10.70
2019-02-17T02:59:10.790Z,10.70
2019-02-17T03:01:41.219Z,10.70
2019-02-17T03:04:11.784Z,10.70
2019-02-17T03:06:48.967Z,10.70
2019-02-17T03:09:19.372Z,10.70
2019-02-17T03:11:49.802Z,10.70
2019-02-17T03:14:20.299Z,10.70
2019-02-17T03:16:50.734Z,10.60
2019-02-17T03:19:21.144Z,10.60
2019-02-17T03:21:51.570Z,10.60
2019-02-17T03:24:21.959Z,10.60
2019-02-17T03:26:52.439Z,10.60
2019-02-17T03:29:22.854Z,10.60
2019-02-17T03:31:53.268Z,10.50
2019-02-17T03:34:23.678Z,10.60
2019-02-17T03:36:54.108Z,10.60
2019-02-17T03:39:24.507Z,10.50
2019-02-17T03:41:54.960Z,10.50
2019-02-17T03:44:25.380Z,10.50
2019-02-17T03:46:55.897Z,10.50
2019-02-17T03:49:26.290Z,10.50
2019-02-17T03:51:56.751Z,10.50
2019-02-17T03:54:27.250Z,10.50
2019-02-17T03:56:57.765Z,10.50
2019-02-17T03:59:28.312Z,10.50
2019-02-17T04:01:58.870Z,10.50
2019-02-17T04:04:29.280Z,10.40
2019-02-17T04:06:59.722Z,10.30
2019-02-17T04:09:30.148Z,10.30
2019-02-17T04:12:00.568Z,10.30
2019-02-17T04:14:31.116Z,10.30
2019-02-17T04:17:01.539Z,10.40
2019-02-17T04:19:32.045Z,10.30
2019-02-17T04:22:02.444Z,10.30
2019-02-17T04:24:32.937Z,10.30
2019-02-17T04:27:03.329Z,10.30
2019-02-17T04:29:33.774Z,10.30
2019-02-17T04:32:04.183Z,10.30
2019-02-17T04:34:34.700Z,10.30
2019-02-17T04:37:05.115Z,10.30
2019-02-17T04:39:35.552Z,10.30
2019-02-17T04:42:05.948Z,10.30
2019-02-17T04:44:36.427Z,10.30
2019-02-17T04:47:06.867Z,10.30
2019-02-17T04:49:37.269Z,10.30
2019-02-17T04:52:07.665Z,10.20
2019-02-17T04:54:38.090Z,10.20
2019-02-17T04:57:08.480Z,10.20
2019-02-17T04:59:38.908Z,10.20
2019-02-17T05:02:09.309Z,10.10
2019-02-17T05:04:39.774Z,10.10
2019-02-17T05:07:10.148Z,10.10
2019-02-17T05:09:40.579Z,10.10
2019-02-17T05:12:10.991Z,10.10
2019-02-17T05:14:41.422Z,10.10
2019-02-17T05:17:11.807Z,10.10
2019-02-17T05:19:42.228Z,10.00
2019-02-17T05:22:12.654Z,9.90
2019-02-17T05:24:43.190Z,9.90
2019-02-17T05:27:13.659Z,9.90
2019-02-17T05:29:44.098Z,9.90
2019-02-17T05:32:14.586Z,9.90
2019-02-17T05:34:45.014Z,9.90
2019-02-17T05:37:15.401Z,9.80
2019-02-17T05:39:45.831Z,9.70
2019-02-17T05:42:16.226Z,9.70
2019-02-17T05:44:46.651Z,9.70
2019-02-17T05:47:17.052Z,9.80
2019-02-17T05:49:47.472Z,9.80
2019-02-17T05:52:17.859Z,9.80
2019-02-17T05:54:50.420Z,9.80
2019-02-17T05:57:20.442Z,9.80
2019-02-17T05:59:50.872Z,9.80
2019-02-17T06:02:21.283Z,9.80
2019-02-17T06:04:51.702Z,9.80
2019-02-17T06:07:22.186Z,9.80
2019-02-17T06:09:52.626Z,9.80
2019-02-17T06:12:23.009Z,9.80
2019-02-17T06:14:53.448Z,9.80
2019-02-17T06:17:23.881Z,9.70
2019-02-17T06:19:54.340Z,9.70
2019-02-17T06:22:24.770Z,9.70
2019-02-17T06:24:55.204Z,9.70
2019-02-17T06:27:25.706Z,9.70
2019-02-17T06:29:56.189Z,9.70
2019-02-17T06:32:26.611Z,9.70
2019-02-17T06:34:57.026Z,9.70
2019-02-17T06:37:27.437Z,9.70
2019-02-17T06:39:57.852Z,9.80
2019-02-17T06:42:28.352Z,9.70
2019-02-17T06:44:58.792Z,9.70
2019-02-17T06:47:32.572Z,9.70
2019-02-17T06:50:03.021Z,9.80
2019-02-17T06:52:33.433Z,9.80
2019-02-17T06:55:21.831Z,9.90
2019-02-17T06:57:52.243Z,9.80
2019-02-17T07:00:26.288Z,9.90
2019-02-17T07:02:56.804Z,9.90
2019-02-17T07:05:46.280Z,10.00
2019-02-17T07:08:16.773Z,10.00
2019-02-17T07:10:47.191Z,10.00
2019-02-17T07:13:17.671Z,9.90
2019-02-17T07:15:48.151Z,9.90
2019-02-17T07:18:18.635Z,9.90
2019-02-17T07:20:49.064Z,9.90
2019-02-17T07:23:19.473Z,10.00
2019-02-17T07:25:49.924Z,10.00
2019-02-17T07:28:20.363Z,10.10
2019-02-17T07:30:50.829Z,10.10
2019-02-17T07:33:21.235Z,10.20
2019-02-17T07:35:51.676Z,10.20
2019-02-17T07:38:22.132Z,10.30
2019-02-17T07:40:52.641Z,10.40
2019-02-17T07:43:23.055Z,10.50
2019-02-17T07:45:53.466Z,10.50
2019-02-17T07:48:23.882Z,10.60
2019-02-17T07:50:56.735Z,10.60
2019-02-17T07:53:26.581Z,10.70
2019-02-17T07:55:57.107Z,10.70
2019-02-17T07:58:27.511Z,10.80
2019-02-17T08:00:59.062Z,10.80
2019-02-17T08:03:29.540Z,10.80
2019-02-17T08:06:00.005Z,10.90
2019-02-17T08:08:30.439Z,11.00
2019-02-17T08:11:03.966Z,11.00
2019-02-17T08:13:33.312Z,11.10
2019-02-17T08:16:03.937Z,11.20
2019-02-17T08:18:34.387Z,11.30
2019-02-17T08:21:06.045Z,11.50
2019-02-17T08:23:36.487Z,11.70
2019-02-17T08:26:06.943Z,11.90
2019-02-17T08:28:37.390Z,12.20
2019-02-17T08:31:08.231Z,12.40
2019-02-17T08:33:39.105Z,12.60
2019-02-17T08:36:09.574Z,12.80
2019-02-17T08:38:40.132Z,12.90
2019-02-17T08:41:10.575Z,13.10
2019-02-17T08:43:41.023Z,13.20
2019-02-17T08:46:11.499Z,13.30
2019-02-17T08:48:41.930Z,13.30
2019-02-17T08:51:12.338Z,13.40
2019-02-17T08:53:42.782Z,13.40
2019-02-17T08:56:13.242Z,13.50
2019-02-17T08:58:43.666Z,13.50
2019-02-17T09:01:14.147Z,13.50
2019-02-17T09:03:44.718Z,13.60
2019-02-17T09:06:15.159Z,13.70
2019-02-17T09:08:45.606Z,13.70
2019-02-17T09:11:16.024Z,13.70
2019-02-17T09:13:46.493Z,13.70
2019-02-17T09:16:16.946Z,13.80
2019-02-17T09:18:47.405Z,13.80
2019-02-17T09:21:17.831Z,13.80
2019-02-17T09:23:48.296Z,13.80
2019-02-17T09:26:18.904Z,13.90
2019-02-17T09:28:49.434Z,13.90
2019-02-17T09:31:22.029Z,13.90
2019-02-17T09:33:55.146Z,13.90
2019-02-17T09:36:25.116Z,14.00
2019-02-17T09:38:55.592Z,14.00
2019-02-17T09:41:26.058Z,14.00
2019-02-17T09:43:56.519Z,14.10
2019-02-17T09:46:26.965Z,14.10
2019-02-17T09:48:57.412Z,14.10
2019-02-17T09:51:27.848Z,14.20
2019-02-17T09:53:58.548Z,14.20
2019-02-17T09:56:29.001Z,14.20
2019-02-17T09:58:59.520Z,14.20
2019-02-17T10:01:30.005Z,14.30
2019-02-17T10:04:00.526Z,14.30
2019-02-17T10:06:33.943Z,14.40
2019-02-17T10:09:23.536Z,14.40
2019-02-17T10:11:54.053Z,14.40
2019-02-17T10:14:24.513Z,14.50
2019-02-17T10:16:55.169Z,14.50
2019-02-17T10:19:25.734Z,14.50
2019-02-17T10:21:56.310Z,14.60
2019-02-17T10:24:26.767Z,14.60
2019-02-17T10:26:57.232Z,14.60
2019-02-17T10:29:27.745Z,14.60
2019-02-17T10:31:58.182Z,14.70
2019-02-17T10:34:28.637Z,14.70
2019-02-17T10:36:59.074Z,14.80
2019-02-17T10:39:29.537Z,14.80
2019-02-17T10:42:00.032Z,14.80
2019-02-17T10:44:30.535Z,14.90
2019-02-17T10:47:00.977Z,14.90
2019-02-17T10:49:31.463Z,15.00
2019-02-17T10:52:02.023Z,15.00
2019-02-17T10:54:32.496Z,15.00
2019-02-17T10:57:02.939Z,15.10
2019-02-17T10:59:33.449Z,15.10
2019-02-17T11:02:03.883Z,15.10
2019-02-17T11:04:34.351Z,15.20
2019-02-17T11:07:04.791Z,15.20
2019-02-17T11:09:35.270Z,15.30
2019-02-17T11:12:05.731Z,15.30
2019-02-17T11:14:36.255Z,15.40
2019-02-17T11:17:06.782Z,15.40
2019-02-17T11:19:37.339Z,15.50
2019-02-17T11:22:07.769Z,15.50
2019-02-17T11:24:38.227Z,15.60
2019-02-17T11:27:08.678Z,15.60
2019-02-17T11:29:39.128Z,15.70
2019-02-17T11:32:09.554Z,15.70
2019-02-17T11:34:40.157Z,15.70
2019-02-17T11:37:10.609Z,15.80
2019-02-17T11:39:41.144Z,15.80
2019-02-17T11:42:11.585Z,15.80
2019-02-17T11:44:43.088Z,15.90
2019-02-17T11:47:13.517Z,15.90
2019-02-17T11:49:44.088Z,15.90
2019-02-17T11:52:14.600Z,16.00
2019-02-17T11:54:45.119Z,16.00
2019-02-17T11:57:15.546Z,16.10
2019-02-17T11:59:46.128Z,16.10
2019-02-17T12:02:24.624Z,16.10
2019-02-17T12:04:48.747Z,16.20
2019-02-17T12:07:19.201Z,16.20
2019-02-17T12:09:49.673Z,16.30
2019-02-17T12:12:20.180Z,16.30
2019-02-17T12:14:50.669Z,16.40
2019-02-17T12:17:22.256Z,16.40
2019-02-17T12:19:55.336Z,16.50
2019-02-17T12:22:47.912Z,16.50
2019-02-17T12:25:45.826Z,16.50
2019-02-17T12:28:20.697Z,16.50
2019-02-17T12:30:52.372Z,16.60
2019-02-17T12:33:22.798Z,16.70
2019-02-17T12:35:53.506Z,16.70
2019-02-17T12:38:24.060Z,16.70
2019-02-17T12:40:54.506Z,16.80
2019-02-17T12:43:24.976Z,16.80
2019-02-17T12:45:55.426Z,16.80
2019-02-17T12:48:25.989Z,16.80
2019-02-17T12:50:56.472Z,16.90
2019-02-17T12:53:27.011Z,16.90
2019-02-17T12:55:57.509Z,16.90
2019-02-17T12:58:30.155Z,17.00
2019-02-17T13:01:00.162Z,17.00
2019-02-17T13:03:30.577Z,17.00
2019-02-17T13:06:01.043Z,17.10
2019-02-17T13:08:31.468Z,17.10
2019-02-17T13:11:01.939Z,17.10
2019-02-17T13:13:32.401Z,17.10
2019-02-17T13:16:02.836Z,17.20
2019-02-17T13:18:33.275Z,17.20
2019-02-17T13:21:03.756Z,17.20
2019-02-17T13:23:34.170Z,17.30
2019-02-17T13:26:04.706Z,17.30
2019-02-17T13:28:35.170Z,17.30
2019-02-17T13:31:05.596Z,17.30
2019-02-17T13:33:39.261Z,17.40
2019-02-17T13:36:08.701Z,17.40
2019-02-17T13:38:39.160Z,17.40
2019-02-17T13:41:09.654Z,17.40
2019-02-17T13:43:40.097Z,17.50
2019-02-17T13:46:10.578Z,17.50
2019-02-17T13:48:41.088Z,17.50
2019-02-17T13:51:11.519Z,17.60
2019-02-17T13:53:41.953Z,17.60
2019-02-17T13:56:12.518Z,17.60
2019-02-17T13:58:42.945Z,17.60
2019-02-17T14:01:13.420Z,17.70
2019-02-17T14:03:48.822Z,17.70
2019-02-17T14:06:16.037Z,17.70
2019-02-17T14:08:46.470Z,17.70
2019-02-17T14:11:16.917Z,17.80
2019-02-17T14:13:47.459Z,17.80
2019-02-17T14:16:17.918Z,17.80
2019-02-17T14:18:48.368Z,17.80
2019-02-17T14:21:18.796Z,17.80
2019-02-17T14:23:49.205Z,17.90
2019-02-17T14:26:19.635Z,17.90
2019-02-17T14:28:50.194Z,17.90
2019-02-17T14:31:20.674Z,17.90
2019-02-17T14:33:58.348Z,17.90
2019-02-17T14:36:23.246Z,17.90
2019-02-17T14:38:53.672Z,18.00
2019-02-17T14:41:24.131Z,18.00
2019-02-17T14:43:54.572Z,18.00
2019-02-17T14:46:25.131Z,18.00
2019-02-17T14:48:55.578Z,18.00
2019-02-17T14:51:26.077Z,18.10
2019-02-17T14:53:56.480Z,18.10
2019-02-17T14:56:27.231Z,18.10
2019-02-17T14:58:59.198Z,18.10
2019-02-17T15:01:29.689Z,18.10
2019-02-17T15:04:08.459Z,18.10
2019-02-17T15:06:32.408Z,18.10
2019-02-17T15:09:04.513Z,18.10
2019-02-17T15:11:34.965Z,18.10
2019-02-17T15:14:05.526Z,18.20
2019-02-17T15:16:35.970Z,18.20
2019-02-17T15:19:06.467Z,18.20
2019-02-17T15:21:36.923Z,18.20
2019-02-17T15:24:07.986Z,18.20
2019-02-17T15:26:38.606Z,18.20
2019-02-17T15:29:09.133Z,18.20
2019-02-17T15:31:39.615Z,18.20
2019-02-17T15:34:18.438Z,18.20
2019-02-17T15:36:42.245Z,18.20
2019-02-17T15:39:12.668Z,18.20
2019-02-17T15:41:43.292Z,18.20
2019-02-17T15:44:13.743Z,18.20
2019-02-17T15:46:44.263Z,18.20
2019-02-17T15:49:14.683Z,18.20
2019-02-17T15:51:45.128Z,18.20
2019-02-17T15:54:15.557Z,18.10
2019-02-17T15:56:46.021Z,18.10
2019-02-17T15:59:16.476Z,18.10
2019-02-17T16:01:48.418Z,18.10
2019-02-17T16:04:27.899Z,18.10
2019-02-17T16:06:52.491Z,18.00
2019-02-17T16:09:22.946Z,18.00
2019-02-17T16:11:53.404Z,18.00
2019-02-17T16:14:23.965Z,18.00
2019-02-17T16:16:54.431Z,17.90
2019-02-17T16:19:24.919Z,17.90
2019-02-17T16:21:55.405Z,17.90
2019-02-17T16:24:26.232Z,17.80
2019-02-17T16:26:56.849Z,17.80
2019-02-17T16:29:27.489Z,17.80
2019-02-17T16:31:57.990Z,17.70
2019-02-17T16:34:37.832Z,17.70
2019-02-17T16:37:00.709Z,17.60
2019-02-17T16:39:31.180Z,17.60
2019-02-17T16:42:01.646Z,17.50
2019-02-17T16:44:32.079Z,17.50
2019-02-17T16:47:02.537Z,17.50
2019-02-17T16:49:33.003Z,17.40
2019-02-17T16:52:04.809Z,17.40
2019-02-17T16:54:35.376Z,17.30
2019-02-17T16:57:05.829Z,17.20
2019-02-17T16:59:36.286Z,17.10
2019-02-17T17:02:06.779Z,17.10
2019-02-17T17:04:37.217Z,17.10
2019-02-17T17:07:07.696Z,17.00
2019-02-17T17:09:38.128Z,17.00
2019-02-17T17:12:10.267Z,16.90
2019-02-17T17:14:40.744Z,16.90
2019-02-17T17:17:11.223Z,16.80
2019-02-17T17:19:41.827Z,16.80
2019-02-17T17:22:12.366Z,16.70
2019-02-17T17:24:43.141Z,16.60
2019-02-17T17:27:13.714Z,16.60
2019-02-17T17:29:44.199Z,16.60
2019-02-17T17:32:14.723Z,16.50
2019-02-17T17:34:47.270Z,16.50
2019-02-17T17:37:17.739Z,16.40
2019-02-17T17:39:48.288Z,16.40
2019-02-17T17:42:18.742Z,16.30
2019-02-17T17:44:49.287Z,16.30
2019-02-17T17:47:19.717Z,16.20
2019-02-17T17:49:50.377Z,16.20
2019-02-17T17:52:21.141Z,16.20
2019-02-17T17:54:51.607Z,16.10
2019-02-17T17:57:22.059Z,16.00
2019-02-17T17:59:52.587Z,15.90
2019-02-17T18:02:23.154Z,15.80
2019-02-17T18:04:53.602Z,15.80
2019-02-17T18:07:24.162Z,15.80
2019-02-17T18:09:54.627Z,15.70
2019-02-17T18:12:25.158Z,15.70
2019-02-17T18:14:55.639Z,15.70
2019-02-17T18:17:26.446Z,15.60
2019-02-17T18:19:56.929Z,15.60
2019-02-17T18:22:27.687Z,15.60
2019-02-17T18:24:58.198Z,15.50
2019-02-17T18:27:28.686Z,15.50
2019-02-17T18:29:59.858Z,15.40
2019-02-17T18:32:30.344Z,15.40
2019-02-17T18:35:00.889Z,15.40
2019-02-17T18:37:31.448Z,15.30
2019-02-17T18:40:02.045Z,15.30
2019-02-17T18:42:32.808Z,15.30
2019-02-17T18:45:03.356Z,15.30
2019-02-17T18:47:35.037Z,15.30
2019-02-17T18:50:06.780Z,15.20
2019-02-17T18:52:37.286Z,15.10
2019-02-17T18:55:08.333Z,15.00
2019-02-17T18:57:49.060Z,15.00
2019-02-17T19:00:13.306Z,15.00
2019-02-17T19:02:43.918Z,15.00
2019-02-17T19:05:14.446Z,15.00
2019-02-17T19:07:45.035Z,14.90
2019-02-17T19:10:15.717Z,14.90
2019-02-17T19:12:46.148Z,14.80
2019-02-17T19:15:16.699Z,14.70
2019-02-17T19:17:47.162Z,14.70
2019-02-17T19:20:19.271Z,14.60
2019-02-17T19:22:49.714Z,14.60
2019-02-17T19:25:20.265Z,14.60
2019-02-17T19:27:50.750Z,14.60
2019-02-17T19:30:21.234Z,14.60
2019-02-17T19:32:52.112Z,14.60
2019-02-17T19:35:22.587Z,14.60
2019-02-17T19:37:54.138Z,14.60
2019-02-17T19:40:24.412Z,14.60
2019-02-17T19:42:54.917Z,14.60
2019-02-17T19:45:25.419Z,14.60
2019-02-17T19:47:55.888Z,14.60
2019-02-17T19:50:26.414Z,14.50
2019-02-17T19:52:56.878Z,14.50
2019-02-17T19:55:27.408Z,14.50
2019-02-17T19:57:57.868Z,14.40
2019-02-17T20:00:28.351Z,14.30
2019-02-17T20:03:20.550Z,14.30
2019-02-17T20:05:56.328Z,14.30
2019-02-17T20:08:26.878Z,14.30
2019-02-17T20:10:57.445Z,14.20
2019-02-17T20:13:27.900Z,14.20
2019-02-17T20:15:58.359Z,14.10
2019-02-17T20:18:28.787Z,14.10
2019-02-17T20:20:59.274Z,14.10
2019-02-17T20:23:29.781Z,14.00
2019-02-17T20:26:00.346Z,14.00
2019-02-17T20:28:42.476Z,14.10
2019-02-17T20:31:06.882Z,14.10
2019-02-17T20:33:37.477Z,14.10
2019-02-17T20:36:07.954Z,14.10
2019-02-17T20:38:38.423Z,14.10
2019-02-17T20:41:08.960Z,14.10
2019-02-17T20:43:39.398Z,14.10
2019-02-17T20:46:09.973Z,14.10
2019-02-17T20:48:40.890Z,14.00
2019-02-17T20:51:13.650Z,13.90
2019-02-17T20:53:44.132Z,13.90
2019-02-17T20:56:14.655Z,13.90
2019-02-17T20:58:45.056Z,14.00
2019-02-17T21:01:15.688Z,14.00
2019-02-17T21:03:46.228Z,13.90
2019-02-17T21:06:16.675Z,13.90
2019-02-17T21:08:47.163Z,13.90
2019-02-17T21:11:19.421Z,13.90
2019-02-17T21:13:49.886Z,13.90
2019-02-17T21:16:20.379Z,13.90
2019-02-17T21:18:50.877Z,13.90
2019-02-17T21:21:21.362Z,13.90
2019-02-17T21:23:51.798Z,13.90
2019-02-17T21:26:26.227Z,13.90
2019-02-17T21:28:54.486Z,13.90
2019-02-17T21:31:25.917Z,13.90
2019-02-17T21:33:56.394Z,13.90
2019-02-17T21:36:26.825Z,13.90
2019-02-17T21:38:58.842Z,13.80
2019-02-17T21:41:29.844Z,13.80
2019-02-17T21:44:00.268Z,13.80
2019-02-17T21:46:30.733Z,13.70
2019-02-17T21:49:01.193Z,13.70
2019-02-17T21:51:31.789Z,13.70
2019-02-17T21:54:02.200Z,13.70
2019-02-17T21:56:32.661Z,13.70
2019-02-17T21:59:03.070Z,13.70
2019-02-17T22:01:33.505Z,13.80
2019-02-17T22:04:03.935Z,13.80
2019-02-17T22:06:34.396Z,13.80
2019-02-17T22:09:06.269Z,13.80
2019-02-17T22:11:36.734Z,13.80
2019-02-17T22:14:07.177Z,13.80
2019-02-17T22:16:37.640Z,13.80
2019-02-17T22:19:08.073Z,13.80
2019-02-17T22:21:38.524Z,13.80
2019-02-17T22:24:08.946Z,13.80
2019-02-17T22:26:39.402Z,13.70
2019-02-17T22:29:09.835Z,13.70
2019-02-17T22:31:40.305Z,13.70
2019-02-17T22:34:10.759Z,13.60
2019-02-17T22:36:43.677Z,13.60
2019-02-17T22:39:13.381Z,13.60
2019-02-17T22:41:43.822Z,13.50
2019-02-17T22:44:14.218Z,13.50
2019-02-17T22:46:44.681Z,13.40
2019-02-17T22:49:15.136Z,13.40
2019-02-17T22:51:45.603Z,13.30
2019-02-17T22:54:15.995Z,13.30
2019-02-17T22:56:46.574Z,13.30
2019-02-17T22:59:17.084Z,13.20
2019-02-17T23:01:47.998Z,13.20
2019-02-17T23:04:18.504Z,13.10
2019-02-17T23:06:54.212Z,13.10
2019-02-17T23:09:21.360Z,13.10
2019-02-17T23:11:51.899Z,13.00
2019-02-17T23:14:22.338Z,13.00
2019-02-17T23:16:52.771Z,13.00
2019-02-17T23:19:23.171Z,12.90
2019-02-17T23:21:53.635Z,12.90
2019-02-17T23:24:24.533Z,12.90
2019-02-17T23:26:54.961Z,12.80
2019-02-17T23:29:25.374Z,12.80
2019-02-17T23:31:55.817Z,12.70
2019-02-17T23:34:26.234Z,12.70
2019-02-17T23:37:03.669Z,12.70
2019-02-17T23:39:28.934Z,12.70
2019-02-17T23:41:59.418Z,12.70
2019-02-17T23:44:29.819Z,12.70
2019-02-17T23:47:00.254Z,12.60
2019-02-17T23:49:30.676Z,12.60
2019-02-17T23:52:01.148Z,12.60
2019-02-17T23:54:31.554Z,12.60
2019-02-17T23:57:02.100Z,12.50
2019-02-17T23:59:32.523Z,12.50
